createdAt,value
2022-09-15T00:02:11.702Z,14.30
2022-09-15T00:04:42.099Z,14.30
2022-09-15T00:07:12.233Z,14.30
2022-09-15T00:09:42.447Z,14.30
2022-09-15T00:12:12.597Z,14.40
2022-09-15T00:14:42.850Z,14.40
2022-09-15T00:17:15.625Z,14.40
2022-09-15T00:19:45.869Z,14.50
2022-09-15T00:22:16.107Z,14.50
2022-09-15T00:24:46.290Z,14.60
2022-09-15T00:27:16.442Z,14.60
2022-09-15T00:29:46.917Z,14.70
2022-09-15T00:32:19.642Z,14.70
2022-09-15T00:34:49.756Z,14.70
2022-09-15T00:37:20.171Z,14.70
2022-09-15T00:39:50.450Z,14.70
2022-09-15T00:42:21.955Z,14.80
2022-09-15T00:44:58.745Z,14.70
2022-09-15T00:47:36.834Z,14.80
2022-09-15T00:50:10.957Z,14.80
2022-09-15T00:52:47.360Z,14.80
2022-09-15T00:55:22.731Z,14.90
2022-09-15T00:57:56.715Z,14.90
2022-09-15T01:00:32.486Z,14.80
2022-09-15T01:03:05.563Z,14.80
2022-09-15T01:05:41.306Z,14.80
2022-09-15T01:08:17.245Z,14.80
2022-09-15T01:10:47.835Z,14.80
2022-09-15T01:13:18.525Z,14.70
2022-09-15T01:15:58.662Z,14.70
2022-09-15T01:18:38.036Z,14.60
2022-09-15T01:21:20.380Z,14.60
2022-09-15T01:24:32.526Z,14.60
2022-09-15T01:27:42.036Z,14.70
2022-09-15T01:30:18.376Z,14.80
2022-09-15T01:33:12.708Z,14.70
2022-09-15T01:35:58.057Z,14.80
2022-09-15T01:38:48.252Z,14.80
2022-09-15T01:41:21.066Z,14.80
2022-09-15T01:43:57.596Z,14.80
2022-09-15T01:46:34.944Z,14.90
2022-09-15T01:49:07.032Z,14.90
2022-09-15T01:51:38.857Z,14.90
2022-09-15T01:54:10.658Z,14.90
2022-09-15T01:56:42.161Z,14.90
2022-09-15T01:59:12.520Z,15.00
2022-09-15T02:01:51.874Z,15.00
2022-09-15T02:04:28.395Z,15.00
2022-09-15T02:07:02.629Z,15.00
2022-09-15T02:09:38.403Z,15.00
2022-09-15T02:12:15.290Z,15.00
2022-09-15T02:14:55.591Z,15.00
2022-09-15T02:17:30.541Z,15.00
2022-09-15T02:20:11.547Z,15.00
2022-09-15T02:22:45.341Z,15.00
2022-09-15T02:25:21.265Z,15.10
2022-09-15T02:27:54.204Z,15.00
2022-09-15T02:30:25.210Z,15.00
2022-09-15T02:33:00.759Z,15.00
2022-09-15T02:35:32.912Z,15.10
2022-09-15T02:38:04.899Z,15.10
2022-09-15T02:40:36.206Z,15.10
2022-09-15T02:43:07.194Z,15.10
2022-09-15T02:45:37.639Z,15.10
2022-09-15T02:48:11.878Z,15.00
2022-09-15T02:50:42.534Z,15.00
2022-09-15T02:53:12.659Z,15.00
2022-09-15T02:55:42.899Z,15.10
2022-09-15T02:58:13.043Z,15.10
2022-09-15T03:00:43.300Z,15.10
2022-09-15T03:03:16.228Z,15.00
2022-09-15T03:05:46.399Z,15.00
2022-09-15T03:08:16.873Z,15.00
2022-09-15T03:10:47.301Z,15.00
2022-09-15T03:13:18.612Z,14.90
2022-09-15T03:15:49.163Z,14.90
2022-09-15T03:18:22.008Z,14.90
2022-09-15T03:20:52.239Z,14.90
2022-09-15T03:23:22.397Z,14.90
2022-09-15T03:28:23.257Z,14.70
2022-09-15T03:30:53.434Z,14.80
2022-09-15T03:33:27.300Z,14.80
2022-09-15T03:35:57.593Z,14.80
2022-09-15T03:38:27.907Z,14.80
2022-09-15T03:41:07.771Z,14.70
2022-09-15T03:43:39.561Z,14.70
2022-09-15T03:46:11.693Z,14.70
2022-09-15T03:48:44.650Z,14.70
2022-09-15T03:51:15.464Z,14.70
2022-09-15T03:53:45.954Z,14.60
2022-09-15T03:56:24.965Z,14.60
2022-09-15T03:58:55.995Z,14.60
2022-09-15T04:01:26.513Z,14.60
2022-09-15T04:03:59.628Z,14.50
2022-09-15T04:06:30.092Z,14.50
2022-09-15T04:09:01.884Z,14.50
2022-09-15T04:11:32.010Z,14.50
2022-09-15T04:14:02.474Z,14.60
2022-09-15T04:16:32.763Z,14.60
2022-09-15T04:19:05.450Z,14.60
2022-09-15T04:21:35.539Z,14.60
2022-09-15T04:24:06.582Z,14.50
2022-09-15T04:26:38.356Z,14.50
2022-09-15T04:29:14.126Z,14.50
2022-09-15T04:31:44.813Z,14.50
2022-09-15T04:34:17.708Z,14.40
2022-09-15T04:36:47.835Z,14.40
2022-09-15T04:39:17.839Z,14.40
2022-09-15T04:41:47.869Z,14.40
2022-09-15T04:44:17.962Z,14.40
2022-09-15T04:46:48.877Z,14.40
2022-09-15T04:49:21.723Z,14.40
2022-09-15T04:51:53.265Z,14.40
2022-09-15T04:54:23.721Z,14.40
2022-09-15T04:56:53.840Z,14.40
2022-09-15T04:59:23.995Z,14.40
2022-09-15T05:01:57.930Z,14.50
2022-09-15T05:04:30.660Z,14.40
2022-09-15T05:07:01.123Z,14.40
2022-09-15T05:09:31.359Z,14.40
2022-09-15T05:12:01.414Z,14.40
2022-09-15T05:14:31.891Z,14.40
2022-09-15T05:17:02.049Z,14.40
2022-09-15T05:19:35.133Z,14.40
2022-09-15T05:22:05.457Z,14.40
2022-09-15T05:24:35.519Z,14.40
2022-09-15T05:27:05.768Z,14.50
2022-09-15T05:29:35.826Z,14.40
2022-09-15T05:32:06.183Z,14.50
2022-09-15T05:34:38.784Z,14.40
2022-09-15T05:37:09.607Z,14.40
2022-09-15T05:42:11.665Z,14.40
2022-09-15T05:44:41.716Z,14.40
2022-09-15T05:47:11.834Z,14.50
2022-09-15T05:49:44.454Z,14.60
2022-09-15T05:52:14.462Z,14.60
2022-09-15T05:54:44.409Z,14.60
2022-09-15T05:57:14.382Z,14.60
2022-09-15T05:59:44.364Z,14.70
2022-09-15T06:02:14.504Z,14.70
2022-09-15T06:04:47.539Z,14.70
2022-09-15T06:07:19.442Z,14.70
2022-09-15T06:09:49.442Z,14.70
2022-09-15T06:12:19.488Z,14.80
2022-09-15T06:14:51.072Z,14.80
2022-09-15T06:17:22.379Z,14.80
2022-09-15T06:19:55.109Z,14.80
2022-09-15T06:22:25.212Z,14.90
2022-09-15T06:24:55.273Z,14.90
2022-09-15T06:27:25.343Z,15.00
2022-09-15T06:29:55.612Z,15.00
2022-09-15T06:32:26.061Z,15.00
2022-09-15T06:34:58.645Z,15.10
2022-09-15T06:37:29.063Z,15.10
2022-09-15T06:39:59.340Z,15.20
2022-09-15T06:42:29.642Z,15.30
2022-09-15T06:44:59.713Z,15.40
2022-09-15T06:47:34.170Z,15.40
2022-09-15T06:50:07.442Z,15.40
2022-09-15T06:52:37.655Z,15.40
2022-09-15T06:55:08.498Z,15.50
2022-09-15T06:57:38.621Z,15.50
2022-09-15T07:00:10.302Z,15.50
2022-09-15T07:02:40.533Z,15.50
2022-09-15T07:05:13.738Z,15.50
2022-09-15T07:07:43.923Z,15.50
2022-09-15T07:10:13.948Z,15.60
2022-09-15T07:12:44.038Z,15.60
2022-09-15T07:15:14.625Z,15.60
2022-09-15T07:17:44.711Z,15.60
2022-09-15T07:20:17.654Z,15.60
2022-09-15T07:22:47.809Z,15.70
2022-09-15T07:25:18.052Z,15.70
2022-09-15T07:27:48.218Z,15.80
2022-09-15T07:30:18.994Z,16.00
2022-09-15T07:32:48.893Z,16.20
2022-09-15T07:35:21.943Z,16.30
2022-09-15T07:37:52.141Z,16.40
2022-09-15T07:40:22.311Z,16.80
2022-09-15T07:42:52.613Z,16.60
2022-09-15T07:45:22.878Z,16.70
2022-09-15T07:47:53.042Z,16.70
2022-09-15T07:50:25.744Z,16.80
2022-09-15T07:52:59.019Z,17.00
2022-09-15T07:55:30.538Z,17.00
2022-09-15T07:58:01.456Z,17.20
2022-09-15T08:00:31.849Z,17.50
2022-09-15T08:03:02.132Z,17.90
2022-09-15T08:05:39.423Z,18.20
2022-09-15T08:08:12.060Z,18.20
2022-09-15T08:10:43.199Z,18.20
2022-09-15T08:13:13.356Z,18.00
2022-09-15T08:15:44.179Z,17.90
2022-09-15T08:18:14.467Z,17.90
2022-09-15T08:20:47.606Z,17.80
2022-09-15T08:23:17.930Z,17.70
2022-09-15T08:25:48.465Z,17.70
2022-09-15T08:28:18.750Z,17.60
2022-09-15T08:30:48.859Z,17.60
2022-09-15T08:33:19.218Z,17.70
2022-09-15T08:35:51.934Z,17.80
2022-09-15T08:38:22.049Z,18.00
2022-09-15T08:40:52.152Z,18.20
2022-09-15T08:43:28.395Z,18.90
2022-09-15T08:46:03.493Z,19.30
2022-09-15T08:48:39.530Z,19.30
2022-09-15T08:51:18.487Z,19.20
2022-09-15T08:53:53.615Z,19.00
2022-09-15T08:56:23.793Z,18.70
2022-09-15T08:59:04.827Z,18.50
2022-09-15T09:01:48.919Z,18.40
2022-09-15T09:04:31.299Z,18.20
2022-09-15T09:07:11.402Z,18.10
2022-09-15T09:09:48.799Z,18.00
2022-09-15T09:12:38.106Z,17.90
2022-09-15T09:15:24.363Z,17.80
2022-09-15T09:18:36.633Z,17.70
2022-09-15T09:21:16.831Z,17.70
2022-09-15T09:23:52.207Z,17.60
2022-09-15T09:26:23.933Z,17.50
2022-09-15T09:29:01.163Z,17.50
2022-09-15T09:31:33.604Z,17.50
2022-09-15T09:34:13.097Z,17.60
2022-09-15T09:36:43.236Z,17.50
2022-09-15T09:39:16.684Z,17.60
2022-09-15T09:41:47.813Z,18.10
2022-09-15T09:44:19.313Z,18.10
2022-09-15T09:46:52.026Z,18.50
2022-09-15T09:49:25.964Z,19.00
2022-09-15T09:51:59.309Z,19.60
2022-09-15T09:54:31.280Z,19.80
2022-09-15T09:57:30.861Z,19.80
2022-09-15T10:00:01.148Z,19.70
2022-09-15T10:02:31.803Z,19.50
2022-09-15T10:05:20.973Z,19.40
2022-09-15T10:07:51.663Z,19.40
2022-09-15T10:10:24.575Z,19.20
2022-09-15T10:12:59.410Z,19.10
2022-09-15T10:15:32.015Z,19.20
2022-09-15T10:18:03.399Z,19.20
2022-09-15T10:20:39.135Z,19.20
2022-09-15T10:23:26.469Z,19.00
2022-09-15T10:26:00.608Z,18.70
2022-09-15T10:28:33.436Z,18.40
2022-09-15T10:31:11.028Z,18.10
2022-09-15T10:33:42.799Z,18.00
2022-09-15T10:36:19.825Z,17.90
2022-09-15T10:38:52.261Z,17.90
2022-09-15T10:41:28.676Z,18.00
2022-09-15T10:44:23.582Z,18.30
2022-09-15T10:47:05.938Z,18.80
2022-09-15T10:49:47.614Z,19.20
2022-09-15T10:52:30.918Z,19.30
2022-09-15T10:55:13.248Z,19.40
2022-09-15T10:58:01.475Z,19.40
2022-09-15T11:00:39.830Z,19.50
2022-09-15T11:03:36.757Z,19.50
2022-09-15T11:06:18.083Z,19.40
2022-09-15T11:09:12.024Z,19.30
2022-09-15T11:11:51.716Z,19.30
2022-09-15T11:14:49.052Z,19.20
2022-09-15T11:17:43.728Z,19.10
2022-09-15T11:20:31.806Z,19.10
2022-09-15T11:23:06.737Z,19.10
2022-09-15T11:25:41.858Z,19.10
2022-09-15T11:28:17.092Z,19.00
2022-09-15T11:30:53.370Z,19.10
2022-09-15T11:33:32.102Z,19.20
2022-09-15T11:36:07.898Z,19.30
2022-09-15T11:38:48.098Z,19.90
2022-09-15T11:41:28.453Z,19.90
2022-09-15T11:44:17.073Z,20.20
2022-09-15T11:47:17.430Z,20.40
2022-09-15T11:49:56.094Z,20.60
2022-09-15T11:52:45.890Z,21.60
2022-09-15T11:55:26.305Z,20.80
2022-09-15T11:58:06.256Z,20.90
2022-09-15T12:00:41.525Z,21.00
2022-09-15T12:03:20.880Z,21.10
2022-09-15T12:05:57.594Z,21.10
2022-09-15T12:08:34.904Z,21.20
2022-09-15T12:11:10.052Z,21.20
2022-09-15T12:13:40.880Z,21.20
2022-09-15T12:16:12.021Z,21.20
2022-09-15T12:18:47.427Z,21.10
2022-09-15T12:21:26.204Z,21.10
2022-09-15T12:24:02.997Z,21.00
2022-09-15T12:26:36.317Z,21.00
2022-09-15T12:29:07.902Z,20.90
2022-09-15T12:31:40.032Z,20.90
2022-09-15T12:34:36.499Z,20.70
2022-09-15T12:37:17.625Z,20.70
2022-09-15T12:39:48.916Z,20.70
2022-09-15T12:42:23.917Z,20.70
2022-09-15T12:44:57.490Z,20.70
2022-09-15T12:47:32.932Z,20.90
2022-09-15T12:50:24.758Z,21.00
2022-09-15T12:53:01.336Z,21.10
2022-09-15T12:55:35.529Z,21.10
2022-09-15T12:58:13.964Z,21.10
2022-09-15T13:01:07.228Z,21.20
2022-09-15T13:04:07.691Z,21.30
2022-09-15T13:06:38.652Z,21.20
2022-09-15T13:09:32.304Z,21.10
2022-09-15T13:12:06.845Z,21.00
2022-09-15T13:14:42.162Z,20.90
2022-09-15T13:17:20.115Z,20.80
2022-09-15T13:19:53.714Z,20.80
2022-09-15T13:22:30.477Z,20.70
2022-09-15T13:25:10.937Z,20.70
2022-09-15T13:27:43.892Z,20.70
2022-09-15T13:30:34.346Z,20.50
2022-09-15T13:33:14.075Z,20.50
2022-09-15T13:36:03.728Z,20.40
2022-09-15T13:39:01.113Z,20.40
2022-09-15T13:42:03.555Z,20.40
2022-09-15T13:45:06.437Z,20.40
2022-09-15T13:47:56.833Z,20.40
2022-09-15T13:50:32.627Z,20.30
2022-09-15T13:53:29.535Z,20.30
2022-09-15T13:55:59.744Z,20.20
2022-09-15T14:01:25.447Z,20.10
2022-09-15T14:03:57.995Z,20.10
2022-09-15T14:06:31.279Z,20.10
2022-09-15T14:09:05.717Z,20.10
2022-09-15T14:11:38.537Z,20.10
2022-09-15T14:14:32.173Z,20.10
2022-09-15T14:17:02.427Z,20.10
2022-09-15T14:19:35.945Z,20.10
2022-09-15T14:22:26.293Z,20.20
2022-09-15T14:24:57.256Z,20.20
2022-09-15T14:27:30.469Z,20.20
2022-09-15T14:30:07.500Z,20.10
2022-09-15T14:32:42.396Z,19.90
2022-09-15T14:35:20.186Z,19.90
2022-09-15T14:37:52.834Z,19.80
2022-09-15T14:40:27.860Z,19.60
2022-09-15T14:42:58.669Z,19.60
2022-09-15T14:46:09.125Z,19.60
2022-09-15T14:48:30.942Z,19.60
2022-09-15T14:51:05.623Z,19.60
2022-09-15T14:53:39.599Z,19.60
2022-09-15T14:56:14.503Z,19.50
2022-09-15T14:58:48.395Z,19.50
2022-09-15T15:01:26.142Z,19.50
2022-09-15T15:04:01.307Z,19.50
2022-09-15T15:06:37.425Z,19.40
2022-09-15T15:09:12.901Z,19.40
2022-09-15T15:11:45.093Z,19.40
2022-09-15T15:14:16.709Z,19.40
2022-09-15T15:16:59.649Z,19.40
2022-09-15T15:19:42.009Z,19.50
2022-09-15T15:22:27.170Z,19.60
2022-09-15T15:24:57.728Z,19.70
2022-09-15T15:27:42.412Z,19.70
2022-09-15T15:30:30.607Z,19.70
2022-09-15T15:33:05.702Z,19.80
2022-09-15T15:35:37.181Z,19.70
2022-09-15T15:38:10.100Z,19.70
2022-09-15T15:40:42.060Z,19.70
2022-09-15T15:43:24.100Z,19.70
2022-09-15T15:45:58.303Z,19.60
2022-09-15T15:48:37.350Z,19.60
2022-09-15T15:51:09.526Z,19.60
2022-09-15T15:53:40.309Z,19.60
2022-09-15T15:56:11.382Z,19.50
2022-09-15T15:58:41.504Z,19.40
2022-09-15T16:01:14.734Z,19.30
2022-09-15T16:03:47.935Z,19.30
2022-09-15T16:06:18.587Z,19.20
2022-09-15T16:08:49.609Z,19.20
2022-09-15T16:11:21.124Z,19.10
2022-09-15T16:13:51.663Z,19.10
2022-09-15T16:16:22.485Z,19.00
2022-09-15T16:18:55.593Z,19.10
2022-09-15T16:21:39.253Z,19.10
2022-09-15T16:24:14.505Z,19.10
2022-09-15T16:26:45.196Z,19.20
2022-09-15T16:29:15.334Z,19.20
2022-09-15T16:31:45.596Z,19.20
2022-09-15T16:34:20.578Z,19.00
2022-09-15T16:36:50.771Z,19.00
2022-09-15T16:39:21.117Z,19.00
2022-09-15T16:41:51.188Z,19.70
2022-09-15T16:44:22.753Z,19.00
2022-09-15T16:46:53.007Z,19.00
2022-09-15T16:49:26.235Z,19.00
2022-09-15T16:51:56.487Z,19.00
2022-09-15T16:54:26.646Z,19.00
2022-09-15T16:56:56.873Z,19.00
2022-09-15T16:59:27.215Z,18.90
2022-09-15T17:01:57.856Z,18.90
2022-09-15T17:04:30.788Z,18.90
2022-09-15T17:07:00.941Z,18.90
2022-09-15T17:09:31.126Z,18.80
2022-09-15T17:12:01.410Z,18.80
2022-09-15T17:14:31.816Z,18.80
2022-09-15T17:17:02.034Z,18.80
2022-09-15T17:19:34.787Z,18.70
2022-09-15T17:22:04.989Z,18.70
2022-09-15T17:24:35.133Z,18.60
2022-09-15T17:27:05.290Z,18.50
2022-09-15T17:29:36.736Z,18.50
2022-09-15T17:32:07.027Z,18.60
2022-09-15T17:34:39.879Z,18.50
2022-09-15T17:37:10.027Z,18.60
2022-09-15T17:39:40.230Z,18.50
2022-09-15T17:42:12.543Z,18.50
2022-09-15T17:44:42.816Z,18.40
2022-09-15T17:47:13.190Z,18.40
2022-09-15T17:49:46.051Z,18.40
2022-09-15T17:52:16.226Z,18.40
2022-09-15T17:54:46.663Z,18.40
2022-09-15T17:57:16.866Z,18.30
2022-09-15T17:59:47.167Z,18.30
2022-09-15T18:02:21.575Z,18.30
2022-09-15T18:04:54.342Z,18.20
2022-09-15T18:07:25.815Z,18.10
2022-09-15T18:09:55.948Z,18.10
2022-09-15T18:12:26.278Z,18.10
2022-09-15T18:14:56.492Z,18.10
2022-09-15T18:17:26.672Z,18.10
2022-09-15T18:19:59.742Z,18.10
2022-09-15T18:22:29.860Z,18.10
2022-09-15T18:25:00.077Z,18.00
2022-09-15T18:27:30.169Z,18.10
2022-09-15T18:30:01.999Z,18.10
2022-09-15T18:32:33.254Z,18.10
2022-09-15T18:35:06.292Z,18.00
2022-09-15T18:37:36.461Z,18.10
2022-09-15T18:40:08.767Z,18.00
2022-09-15T18:42:39.196Z,18.00
2022-09-15T18:45:12.351Z,18.00
2022-09-15T18:47:43.152Z,18.00
2022-09-15T18:50:16.616Z,18.00
2022-09-15T18:52:46.975Z,18.00
2022-09-15T18:55:20.658Z,17.90
2022-09-15T18:57:51.983Z,18.60
2022-09-15T19:00:24.997Z,17.90
2022-09-15T19:03:00.142Z,17.90
2022-09-15T19:05:33.937Z,17.90
2022-09-15T19:08:04.975Z,17.90
2022-09-15T19:10:35.483Z,17.90
2022-09-15T19:13:05.752Z,17.90
2022-09-15T19:15:36.579Z,17.90
2022-09-15T19:18:07.443Z,17.90
2022-09-15T19:20:40.423Z,17.90
2022-09-15T19:23:11.175Z,17.90
2022-09-15T19:25:43.550Z,17.90
2022-09-15T19:28:13.879Z,17.90
2022-09-15T19:30:44.202Z,17.90
2022-09-15T19:33:14.559Z,17.90
2022-09-15T19:35:53.283Z,17.80
2022-09-15T19:38:30.484Z,17.90
2022-09-15T19:41:06.644Z,17.90
2022-09-15T19:43:40.557Z,17.90
2022-09-15T19:46:15.945Z,17.90
2022-09-15T19:48:49.489Z,18.00
2022-09-15T19:51:23.802Z,17.80
2022-09-15T19:54:01.990Z,17.80
2022-09-15T19:56:32.882Z,17.90
2022-09-15T19:59:03.331Z,17.80
2022-09-15T20:01:34.361Z,17.80
2022-09-15T20:04:05.717Z,17.70
2022-09-15T20:06:39.214Z,17.70
2022-09-15T20:09:10.321Z,17.70
2022-09-15T20:11:40.449Z,17.70
2022-09-15T20:14:10.987Z,17.60
2022-09-15T20:16:41.226Z,17.60
2022-09-15T20:19:11.824Z,17.60
2022-09-15T20:21:51.643Z,17.60
2022-09-15T20:24:23.874Z,17.50
2022-09-15T20:26:54.630Z,17.50
2022-09-15T20:29:25.054Z,17.50
2022-09-15T20:31:55.429Z,17.40
2022-09-15T20:34:25.746Z,17.40
2022-09-15T20:36:59.163Z,17.40
2022-09-15T20:39:29.344Z,17.50
2022-09-15T20:41:59.500Z,17.50
2022-09-15T20:44:29.644Z,17.50
2022-09-15T20:46:59.749Z,17.50
2022-09-15T20:49:29.909Z,17.60
2022-09-15T20:52:02.636Z,17.60
2022-09-15T20:54:32.692Z,17.50
2022-09-15T20:57:02.780Z,17.50
2022-09-15T20:59:32.839Z,17.60
2022-09-15T21:02:04.844Z,17.60
2022-09-15T21:04:35.455Z,17.60
2022-09-15T21:07:08.274Z,17.50
2022-09-15T21:09:38.404Z,17.50
2022-09-15T21:12:10.221Z,17.50
2022-09-15T21:14:40.419Z,17.40
2022-09-15T21:17:11.320Z,17.40
2022-09-15T21:19:41.340Z,17.40
2022-09-15T21:22:14.057Z,17.40
2022-09-15T21:24:44.126Z,17.40
2022-09-15T21:27:30.745Z,17.40
2022-09-15T21:30:00.880Z,17.40
2022-09-15T21:32:31.341Z,17.40
2022-09-15T21:35:01.488Z,17.40
2022-09-15T21:37:34.439Z,17.40
2022-09-15T21:40:05.198Z,17.40
2022-09-15T21:42:35.197Z,17.50
2022-09-15T21:45:07.669Z,17.50
2022-09-15T21:47:38.273Z,17.60
2022-09-15T21:50:09.317Z,17.50
2022-09-15T21:52:42.880Z,17.50
2022-09-15T21:55:13.311Z,17.40
2022-09-15T21:57:43.470Z,17.40
2022-09-15T22:00:15.624Z,17.40
2022-09-15T22:02:45.861Z,17.40
2022-09-15T22:05:16.093Z,17.40
2022-09-15T22:07:48.939Z,17.50
2022-09-15T22:10:19.404Z,17.60
2022-09-15T22:12:50.023Z,17.60
2022-09-15T22:15:20.390Z,17.50
2022-09-15T22:17:50.786Z,17.40
2022-09-15T22:20:21.604Z,17.40
2022-09-15T22:22:54.848Z,17.40
2022-09-15T22:25:25.498Z,17.30
2022-09-15T22:27:55.750Z,17.30
2022-09-15T22:30:25.939Z,17.20
2022-09-15T22:32:56.547Z,17.20
2022-09-15T22:35:26.725Z,17.20
2022-09-15T22:37:59.490Z,17.20
2022-09-15T22:40:29.807Z,17.30
2022-09-15T22:43:00.081Z,17.30
2022-09-15T22:45:30.099Z,17.20
2022-09-15T22:48:00.507Z,17.20
2022-09-15T22:50:30.493Z,17.10
2022-09-15T22:53:03.354Z,17.10
2022-09-15T22:55:34.256Z,17.00
2022-09-15T22:58:04.533Z,16.90
2022-09-15T23:00:34.902Z,17.00
2022-09-15T23:03:05.177Z,17.00
2022-09-15T23:05:35.401Z,17.00
2022-09-15T23:08:08.135Z,17.00
2022-09-15T23:10:38.131Z,17.00
2022-09-15T23:13:08.193Z,17.00
2022-09-15T23:15:38.216Z,17.10
2022-09-15T23:18:08.370Z,17.10
2022-09-15T23:20:39.835Z,17.10
2022-09-15T23:23:12.695Z,17.00
2022-09-15T23:25:42.799Z,17.00
2022-09-15T23:28:12.938Z,16.90
2022-09-15T23:30:43.051Z,16.90
2022-09-15T23:33:13.177Z,16.90
2022-09-15T23:35:43.260Z,16.90
2022-09-15T23:38:16.986Z,16.80
2022-09-15T23:40:48.419Z,16.80
2022-09-15T23:43:18.707Z,16.70
2022-09-15T23:45:51.283Z,16.70
2022-09-15T23:48:22.647Z,16.50
2022-09-15T23:50:52.863Z,16.60
2022-09-15T23:53:26.102Z,16.50
2022-09-15T23:55:56.187Z,16.50
2022-09-15T23:58:26.582Z,16.40
